createdAt,value
2019-05-21T00:02:04.951Z,16.34
2019-05-21T00:04:35.968Z,16.29
2019-05-21T00:07:07.192Z,16.26
2019-05-21T00:09:38.284Z,16.26
2019-05-21T00:12:09.582Z,16.26
2019-05-21T00:14:40.884Z,16.28
2019-05-21T00:17:12.113Z,16.28
2019-05-21T00:19:43.424Z,16.27
2019-05-21T00:22:14.413Z,16.31
2019-05-21T00:24:45.710Z,16.26
2019-05-21T00:27:17.078Z,16.18
2019-05-21T00:30:43.051Z,16.22
2019-05-21T00:34:08.584Z,16.20
2019-05-21T00:37:33.964Z,16.07
2019-05-21T00:40:59.461Z,16.00
2019-05-21T00:43:46.916Z,15.94
2019-05-21T00:46:18.001Z,15.91
2019-05-21T00:48:49.371Z,15.89
2019-05-21T00:51:20.779Z,15.91
2019-05-21T00:53:51.801Z,15.94
2019-05-21T00:56:23.327Z,15.99
2019-05-21T00:58:54.367Z,15.97
2019-05-21T01:01:25.535Z,16.00
2019-05-21T01:03:56.633Z,16.02
2019-05-21T01:06:27.902Z,16.03
2019-05-21T01:08:58.946Z,16.03
2019-05-21T01:11:29.859Z,15.97
2019-05-21T01:14:01.083Z,15.98
2019-05-21T01:16:32.588Z,15.93
2019-05-21T01:19:03.558Z,15.95
2019-05-21T01:21:34.593Z,15.94
2019-05-21T01:24:06.709Z,15.92
2019-05-21T01:26:37.806Z,15.90
2019-05-21T01:29:08.819Z,15.86
2019-05-21T01:31:39.855Z,15.88
2019-05-21T01:34:11.571Z,15.90
2019-05-21T01:36:43.031Z,15.89
2019-05-21T01:39:13.985Z,15.87
2019-05-21T01:41:44.871Z,15.87
2019-05-21T01:44:16.105Z,15.87
2019-05-21T01:46:47.259Z,15.85
2019-05-21T01:49:18.457Z,15.80
2019-05-21T01:51:49.720Z,15.75
2019-05-21T01:54:20.697Z,15.67
2019-05-21T01:56:51.992Z,15.69
2019-05-21T01:59:23.081Z,15.62
2019-05-21T02:01:54.705Z,15.60
2019-05-21T02:04:25.875Z,15.64
2019-05-21T02:06:57.151Z,15.58
2019-05-21T02:09:28.439Z,15.56
2019-05-21T02:11:59.431Z,15.57
2019-05-21T02:14:30.706Z,15.55
2019-05-21T02:17:01.797Z,15.50
2019-05-21T02:19:32.889Z,15.53
2019-05-21T02:22:03.857Z,15.50
2019-05-21T02:24:34.759Z,15.47
2019-05-21T02:27:05.917Z,15.46
2019-05-21T02:29:36.814Z,15.46
2019-05-21T02:32:07.701Z,15.44
2019-05-21T02:34:38.675Z,15.40
2019-05-21T02:37:09.861Z,15.41
2019-05-21T02:39:40.836Z,15.42
2019-05-21T02:42:12.239Z,15.40
2019-05-21T02:44:43.269Z,15.39
2019-05-21T02:47:14.644Z,15.36
2019-05-21T02:49:45.698Z,15.35
2019-05-21T02:52:16.859Z,15.33
2019-05-21T02:54:47.886Z,15.33
2019-05-21T02:57:19.129Z,15.36
2019-05-21T02:59:51.988Z,15.32
2019-05-21T03:02:36.785Z,15.34
2019-05-21T03:05:08.926Z,15.38
2019-05-21T03:07:39.968Z,15.40
2019-05-21T03:10:11.303Z,15.41
2019-05-21T03:12:42.311Z,15.46
2019-05-21T03:15:13.788Z,15.47
2019-05-21T03:17:44.893Z,15.51
2019-05-21T03:20:15.880Z,15.57
2019-05-21T03:22:47.117Z,15.63
2019-05-21T03:25:18.276Z,15.68
2019-05-21T03:27:49.371Z,15.75
2019-05-21T03:30:21.351Z,15.77
2019-05-21T03:32:52.473Z,15.83
2019-05-21T03:35:25.318Z,15.84
2019-05-21T03:37:57.857Z,15.81
2019-05-21T03:40:29.050Z,15.80
2019-05-21T03:43:00.321Z,15.93
2019-05-21T03:45:31.529Z,15.99
2019-05-21T03:48:02.695Z,16.03
2019-05-21T03:50:34.177Z,16.05
2019-05-21T03:53:05.214Z,16.17
2019-05-21T03:55:36.418Z,16.18
2019-05-21T03:58:07.323Z,16.26
2019-05-21T04:00:38.444Z,16.29
2019-05-21T04:03:09.761Z,16.36
2019-05-21T04:05:40.915Z,16.44
2019-05-21T04:08:12.071Z,16.56
2019-05-21T04:10:43.642Z,16.65
2019-05-21T04:13:14.718Z,16.69
2019-05-21T04:15:53.420Z,16.76
2019-05-21T04:18:28.952Z,16.83
2019-05-21T04:20:59.931Z,16.92
2019-05-21T04:23:31.220Z,17.00
2019-05-21T04:26:02.294Z,17.15
2019-05-21T04:28:33.634Z,17.26
2019-05-21T04:31:04.809Z,17.39
2019-05-21T04:33:36.260Z,17.47
2019-05-21T04:36:07.358Z,17.55
2019-05-21T04:38:38.414Z,17.63
2019-05-21T04:41:09.437Z,17.75
2019-05-21T04:43:40.396Z,17.89
2019-05-21T04:46:11.375Z,17.97
2019-05-21T04:48:42.523Z,18.07
2019-05-21T04:51:14.292Z,18.20
2019-05-21T04:53:45.726Z,18.29
2019-05-21T04:56:16.949Z,18.39
2019-05-21T04:58:48.220Z,18.49
2019-05-21T05:01:19.331Z,18.56
2019-05-21T05:03:50.383Z,18.65
2019-05-21T05:06:21.491Z,18.78
2019-05-21T05:08:52.703Z,18.93
2019-05-21T05:11:23.851Z,19.06
2019-05-21T05:13:55.209Z,19.19
2019-05-21T05:16:26.363Z,19.29
2019-05-21T05:18:57.527Z,19.37
2019-05-21T05:21:28.491Z,19.46
2019-05-21T05:23:59.774Z,19.47
2019-05-21T05:26:30.866Z,19.53
2019-05-21T05:29:02.034Z,19.52
2019-05-21T05:31:34.702Z,19.53
2019-05-21T05:34:05.957Z,19.51
2019-05-21T05:36:36.973Z,19.40
2019-05-21T05:39:09.023Z,19.43
2019-05-21T05:41:39.985Z,19.49
2019-05-21T05:44:11.180Z,19.60
2019-05-21T05:46:43.195Z,19.71
2019-05-21T05:49:15.779Z,19.79
2019-05-21T05:51:47.203Z,19.88
2019-05-21T05:54:18.309Z,19.96
2019-05-21T05:56:49.610Z,20.06
2019-05-21T05:59:20.713Z,20.17
2019-05-21T06:01:51.779Z,20.28
2019-05-21T06:04:22.959Z,20.23
2019-05-21T06:06:54.114Z,20.30
2019-05-21T06:09:26.477Z,20.32
2019-05-21T06:11:57.691Z,20.34
2019-05-21T06:14:28.770Z,20.37
2019-05-21T06:16:59.973Z,20.40
2019-05-21T06:19:31.522Z,20.45
2019-05-21T06:22:02.649Z,20.45
2019-05-21T06:24:33.833Z,20.47
2019-05-21T06:27:05.169Z,20.54
2019-05-21T06:29:39.569Z,20.50
2019-05-21T06:32:09.453Z,20.52
2019-05-21T06:34:40.671Z,20.60
2019-05-21T06:37:11.691Z,20.62
2019-05-21T06:39:42.947Z,20.69
2019-05-21T06:42:14.283Z,20.77
2019-05-21T06:44:45.371Z,20.87
2019-05-21T06:47:16.658Z,20.97
2019-05-21T06:49:49.353Z,21.19
2019-05-21T06:52:20.812Z,21.45
2019-05-21T06:54:51.771Z,21.74
2019-05-21T06:57:22.861Z,22.04
2019-05-21T06:59:54.097Z,22.25
2019-05-21T07:02:25.246Z,22.53
2019-05-21T07:04:56.453Z,22.76
2019-05-21T07:07:27.562Z,23.03
2019-05-21T07:09:58.571Z,23.18
2019-05-21T07:12:29.591Z,23.26
2019-05-21T07:15:00.909Z,23.25
2019-05-21T07:20:02.142Z,23.11
2019-05-21T07:22:33.424Z,23.10
2019-05-21T07:25:06.435Z,23.05
2019-05-21T07:27:37.499Z,23.08
2019-05-21T07:30:10.255Z,23.13
2019-05-21T07:32:41.303Z,23.17
2019-05-21T07:35:13.037Z,23.27
2019-05-21T07:37:44.283Z,23.34
2019-05-21T07:40:16.073Z,23.38
2019-05-21T07:42:47.381Z,23.50
2019-05-21T07:45:18.843Z,23.64
2019-05-21T07:47:49.894Z,23.82
2019-05-21T07:50:21.538Z,23.98
2019-05-21T07:52:52.584Z,24.07
2019-05-21T07:55:23.555Z,24.25
2019-05-21T07:57:54.699Z,24.44
2019-05-21T08:00:26.011Z,24.66
2019-05-21T08:02:56.982Z,24.85
2019-05-21T08:05:28.085Z,24.98
2019-05-21T08:07:59.213Z,25.25
2019-05-21T08:10:30.514Z,25.50
2019-05-21T08:13:01.980Z,25.65
2019-05-21T08:15:33.076Z,25.72
2019-05-21T08:18:03.992Z,25.80
2019-05-21T08:20:35.140Z,25.87
2019-05-21T08:23:06.285Z,25.95
2019-05-21T08:25:37.646Z,25.92
2019-05-21T08:28:09.294Z,25.84
2019-05-21T08:30:40.386Z,25.74
2019-05-21T08:33:11.521Z,25.78
2019-05-21T08:35:42.735Z,25.57
2019-05-21T08:38:13.721Z,25.57
2019-05-21T08:40:46.427Z,25.61
2019-05-21T08:43:17.536Z,25.72
2019-05-21T08:45:48.749Z,25.74
2019-05-21T08:48:19.869Z,25.83
2019-05-21T08:50:51.220Z,26.02
2019-05-21T08:53:22.511Z,26.23
2019-05-21T08:55:53.856Z,26.43
2019-05-21T08:58:25.694Z,26.65
2019-05-21T09:00:56.770Z,26.95
2019-05-21T09:03:28.109Z,27.15
2019-05-21T09:05:59.230Z,27.42
2019-05-21T09:08:30.222Z,27.75
2019-05-21T09:11:01.400Z,28.36
2019-05-21T09:13:33.895Z,28.95
2019-05-21T09:16:06.478Z,29.06
2019-05-21T09:18:39.769Z,29.12
2019-05-21T09:21:11.092Z,29.20
2019-05-21T09:23:42.252Z,29.35
2019-05-21T09:26:13.632Z,29.54
2019-05-21T09:28:44.848Z,29.53
2019-05-21T09:31:15.855Z,29.17
2019-05-21T09:33:47.311Z,28.90
2019-05-21T09:36:18.356Z,28.64
2019-05-21T09:38:49.444Z,28.26
2019-05-21T09:41:20.459Z,27.86
2019-05-21T09:43:51.784Z,27.56
2019-05-21T09:46:24.398Z,27.41
2019-05-21T09:48:56.163Z,27.25
2019-05-21T09:51:27.903Z,27.19
2019-05-21T09:53:58.980Z,27.25
2019-05-21T09:56:33.421Z,27.29
2019-05-21T09:59:10.341Z,27.41
2019-05-21T10:01:48.447Z,27.72
2019-05-21T10:04:19.723Z,28.01
2019-05-21T10:06:51.213Z,28.15
2019-05-21T10:09:22.365Z,28.41
2019-05-21T10:11:53.559Z,29.13
2019-05-21T10:14:24.696Z,29.59
2019-05-21T10:16:55.836Z,30.46
2019-05-21T10:19:26.988Z,31.23
2019-05-21T10:21:59.728Z,32.73
2019-05-21T10:24:30.948Z,33.00
2019-05-21T10:27:03.519Z,32.68
2019-05-21T10:29:34.976Z,35.18
2019-05-21T10:32:06.120Z,35.52
2019-05-21T10:34:37.578Z,35.73
2019-05-21T10:37:08.762Z,39.34
2019-05-21T10:39:40.009Z,38.14
2019-05-21T10:42:12.254Z,37.23
2019-05-21T10:44:43.430Z,37.12
2019-05-21T10:47:16.416Z,36.99
2019-05-21T10:49:47.541Z,36.44
2019-05-21T10:52:18.911Z,36.47
2019-05-21T10:54:50.038Z,36.39
2019-05-21T10:57:21.289Z,36.20
2019-05-21T10:59:52.576Z,35.78
2019-05-21T11:02:28.588Z,35.10
2019-05-21T11:05:01.486Z,35.34
2019-05-21T11:07:33.075Z,35.64
2019-05-21T11:10:07.411Z,35.74
2019-05-21T11:12:39.088Z,35.42
2019-05-21T11:15:12.016Z,34.94
2019-05-21T11:17:53.754Z,34.02
2019-05-21T11:20:16.484Z,33.12
2019-05-21T11:22:47.894Z,32.99
2019-05-21T11:25:19.038Z,32.51
2019-05-21T11:27:50.381Z,32.23
2019-05-21T11:30:22.461Z,32.05
2019-05-21T11:32:54.093Z,31.88
2019-05-21T11:35:25.326Z,32.01
2019-05-21T11:37:56.504Z,32.25
2019-05-21T11:40:28.186Z,32.54
2019-05-21T11:42:59.283Z,32.58
2019-05-21T11:45:32.730Z,32.66
2019-05-21T11:48:03.223Z,32.17
2019-05-21T11:50:34.810Z,32.11
2019-05-21T11:53:05.927Z,31.64
2019-05-21T11:55:37.168Z,30.65
2019-05-21T11:58:09.717Z,30.26
2019-05-21T12:00:41.032Z,29.72
2019-05-21T12:03:12.073Z,29.58
2019-05-21T12:05:43.436Z,29.05
2019-05-21T12:08:14.653Z,28.49
2019-05-21T12:10:46.633Z,27.86
2019-05-21T12:13:20.475Z,27.31
2019-05-21T12:15:50.955Z,27.16
2019-05-21T12:18:22.211Z,26.92
2019-05-21T12:20:53.543Z,26.44
2019-05-21T12:23:24.797Z,26.32
2019-05-21T12:25:55.993Z,26.09
2019-05-21T12:28:27.108Z,26.07
2019-05-21T12:30:59.689Z,25.89
2019-05-21T12:33:34.710Z,25.84
2019-05-21T12:36:03.785Z,25.74
2019-05-21T12:38:34.865Z,25.52
2019-05-21T12:41:05.967Z,25.39
2019-05-21T12:43:37.229Z,25.24
2019-05-21T12:46:08.352Z,25.06
2019-05-21T12:48:39.463Z,24.74
2019-05-21T12:51:10.652Z,24.34
2019-05-21T12:53:41.545Z,24.11
2019-05-21T12:56:12.672Z,23.89
2019-05-21T12:58:44.008Z,23.68
2019-05-21T13:01:15.472Z,23.51
2019-05-21T13:03:47.179Z,23.34
2019-05-21T13:06:18.761Z,23.23
2019-05-21T13:08:49.979Z,23.06
2019-05-21T13:11:21.085Z,23.05
2019-05-21T13:13:52.952Z,23.01
2019-05-21T13:16:24.143Z,22.84
2019-05-21T13:18:57.022Z,22.85
2019-05-21T13:21:28.331Z,22.83
2019-05-21T13:23:59.364Z,22.60
2019-05-21T13:26:30.449Z,22.54
2019-05-21T13:29:01.833Z,22.45
2019-05-21T13:31:33.062Z,22.37
2019-05-21T13:34:04.147Z,22.32
2019-05-21T13:36:35.218Z,22.19
2019-05-21T13:39:09.488Z,22.25
2019-05-21T13:41:40.565Z,22.27
2019-05-21T13:44:11.726Z,22.36
2019-05-21T13:46:42.828Z,22.58
2019-05-21T13:49:14.181Z,22.88
2019-05-21T13:51:45.308Z,23.08
2019-05-21T13:54:16.505Z,23.15
2019-05-21T13:56:47.807Z,23.01
2019-05-21T13:59:19.719Z,22.98
2019-05-21T14:01:51.093Z,22.90
2019-05-21T14:04:22.620Z,22.85
2019-05-21T14:06:54.028Z,22.89
2019-05-21T14:09:25.466Z,22.71
2019-05-21T14:11:56.531Z,22.58
2019-05-21T14:14:27.678Z,22.45
2019-05-21T14:16:58.919Z,22.34
2019-05-21T14:19:30.002Z,22.33
2019-05-21T14:22:01.223Z,22.46
2019-05-21T14:24:32.216Z,22.49
2019-05-21T14:27:03.426Z,22.52
2019-05-21T14:29:34.674Z,22.48
2019-05-21T14:32:06.069Z,22.62
2019-05-21T14:34:37.158Z,22.76
2019-05-21T14:37:08.709Z,22.90
2019-05-21T14:39:39.881Z,23.00
2019-05-21T14:42:10.920Z,23.18
2019-05-21T14:44:42.069Z,23.18
2019-05-21T14:47:13.195Z,23.14
2019-05-21T14:49:44.083Z,23.02
2019-05-21T14:52:15.057Z,23.00
2019-05-21T14:54:46.399Z,22.98
2019-05-21T14:57:17.677Z,23.02
2019-05-21T14:59:48.878Z,23.02
2019-05-21T15:02:19.976Z,22.81
2019-05-21T15:04:51.066Z,22.92
2019-05-21T15:07:22.339Z,22.80
2019-05-21T15:09:53.746Z,22.86
2019-05-21T15:12:25.382Z,22.72
2019-05-21T15:14:56.552Z,22.60
2019-05-21T15:17:27.812Z,22.51
2019-05-21T15:20:00.838Z,22.34
2019-05-21T15:22:32.292Z,22.24
2019-05-21T15:25:03.485Z,22.14
2019-05-21T15:27:34.701Z,21.98
2019-05-21T15:30:07.490Z,21.93
2019-05-21T15:32:38.614Z,21.88
2019-05-21T15:35:09.758Z,21.77
2019-05-21T15:37:44.821Z,21.72
2019-05-21T15:40:14.908Z,21.59
2019-05-21T15:42:46.164Z,21.59
2019-05-21T15:45:19.245Z,21.60
2019-05-21T15:47:50.471Z,21.67
2019-05-21T15:50:22.133Z,21.69
2019-05-21T15:52:53.327Z,21.69
2019-05-21T15:55:24.407Z,21.68
2019-05-21T15:57:55.611Z,21.62
2019-05-21T16:00:27.164Z,21.62
2019-05-21T16:02:58.944Z,21.52
2019-05-21T16:05:30.261Z,21.48
2019-05-21T16:08:01.557Z,21.47
2019-05-21T16:10:32.862Z,21.39
2019-05-21T16:13:04.578Z,21.33
2019-05-21T16:15:35.656Z,21.25
2019-05-21T16:18:08.223Z,21.21
2019-05-21T16:20:42.603Z,21.21
2019-05-21T16:23:13.527Z,21.12
2019-05-21T16:25:44.855Z,21.06
2019-05-21T16:28:16.025Z,20.97
2019-05-21T16:30:48.635Z,20.93
2019-05-21T16:33:19.947Z,20.94
2019-05-21T16:35:51.145Z,20.89
2019-05-21T16:38:23.083Z,20.82
2019-05-21T16:40:54.529Z,20.75
2019-05-21T16:43:25.653Z,20.73
2019-05-21T16:45:56.978Z,20.67
2019-05-21T16:48:28.235Z,20.62
2019-05-21T16:50:59.501Z,20.48
2019-05-21T16:53:30.633Z,20.43
2019-05-21T16:56:01.773Z,20.35
2019-05-21T16:58:33.027Z,20.27
2019-05-21T17:01:05.967Z,20.23
2019-05-21T17:03:37.154Z,20.16
2019-05-21T17:06:08.275Z,20.12
2019-05-21T17:08:39.537Z,20.12
2019-05-21T17:11:10.544Z,20.05
2019-05-21T17:13:41.840Z,19.99
2019-05-21T17:16:14.419Z,19.93
2019-05-21T17:18:45.538Z,19.84
2019-05-21T17:21:17.870Z,19.76
2019-05-21T17:23:48.806Z,19.64
2019-05-21T17:26:20.309Z,19.59
2019-05-21T17:28:51.318Z,19.50
2019-05-21T17:31:22.673Z,19.48
2019-05-21T17:33:53.828Z,19.48
2019-05-21T17:36:24.965Z,19.49
2019-05-21T17:38:56.271Z,19.45
2019-05-21T17:41:27.304Z,19.38
2019-05-21T17:43:58.359Z,19.37
2019-05-21T17:46:29.823Z,19.34
2019-05-21T17:49:00.999Z,19.32
2019-05-21T17:51:32.219Z,19.24
2019-05-21T17:54:03.635Z,19.16
2019-05-21T17:56:34.532Z,19.13
2019-05-21T17:59:05.782Z,18.94
2019-05-21T18:01:37.022Z,18.88
2019-05-21T18:04:08.630Z,18.85
2019-05-21T18:06:40.014Z,18.83
2019-05-21T18:09:13.721Z,18.80
2019-05-21T18:11:45.996Z,18.72
2019-05-21T18:14:17.750Z,18.67
2019-05-21T18:16:48.904Z,18.60
2019-05-21T18:19:20.886Z,18.51
2019-05-21T18:21:51.997Z,18.41
2019-05-21T18:24:24.183Z,18.29
2019-05-21T18:26:55.221Z,18.29
2019-05-21T18:29:26.269Z,18.20
2019-05-21T18:31:57.411Z,18.07
2019-05-21T18:34:28.518Z,17.99
2019-05-21T18:36:59.939Z,17.94
2019-05-21T18:39:31.237Z,17.79
2019-05-21T18:42:02.453Z,17.72
2019-05-21T18:44:33.606Z,17.58
2019-05-21T18:47:04.665Z,17.54
2019-05-21T18:49:35.878Z,17.48
2019-05-21T18:52:07.410Z,17.44
2019-05-21T18:54:38.846Z,17.39
2019-05-21T18:57:10.596Z,17.31
2019-05-21T18:59:42.158Z,17.29
2019-05-21T19:02:13.996Z,17.21
2019-05-21T19:04:45.403Z,17.17
2019-05-21T19:07:16.796Z,17.15
2019-05-21T19:09:47.953Z,17.12
2019-05-21T19:12:19.137Z,17.12
2019-05-21T19:14:50.442Z,17.01
2019-05-21T19:17:34.787Z,16.98
2019-05-21T19:19:54.674Z,16.90
2019-05-21T19:22:27.678Z,16.85
2019-05-21T19:24:58.817Z,16.78
2019-05-21T19:27:30.195Z,16.85
2019-05-21T19:30:02.859Z,16.66
2019-05-21T19:32:35.546Z,16.65
2019-05-21T19:35:24.280Z,16.66
2019-05-21T19:38:13.107Z,16.60
2019-05-21T19:41:01.832Z,16.61
2019-05-21T19:43:46.502Z,16.57
2019-05-21T19:46:35.012Z,16.56
2019-05-21T19:49:23.451Z,16.45
2019-05-21T19:52:01.853Z,16.35
2019-05-21T19:54:50.297Z,16.32
2019-05-21T19:57:40.361Z,16.36
2019-05-21T20:00:28.541Z,16.28
2019-05-21T20:03:17.513Z,16.24
2019-05-21T20:06:06.888Z,16.22
2019-05-21T20:08:57.244Z,16.22
2019-05-21T20:11:36.894Z,16.25
2019-05-21T20:14:15.674Z,16.24
2019-05-21T20:16:57.024Z,16.21
2019-05-21T20:19:47.843Z,16.28
2019-05-21T20:22:33.178Z,16.23
2019-05-21T20:25:23.989Z,16.15
2019-05-21T20:28:13.489Z,16.22
2019-05-21T20:31:02.669Z,16.29
2019-05-21T20:33:53.284Z,16.27
2019-05-21T20:36:42.150Z,16.28
2019-05-21T20:39:33.745Z,16.28
2019-05-21T20:42:05.921Z,16.33
2019-05-21T20:44:39.134Z,16.29
2019-05-21T20:47:12.345Z,16.32
2019-05-21T20:49:46.200Z,16.26
2019-05-21T20:52:20.283Z,16.32
2019-05-21T20:54:53.064Z,16.37
2019-05-21T20:57:25.331Z,16.35
2019-05-21T20:59:56.942Z,16.26
2019-05-21T21:02:28.656Z,16.29
2019-05-21T21:04:59.897Z,16.30
2019-05-21T21:07:30.994Z,16.15
2019-05-21T21:10:02.137Z,16.29
2019-05-21T21:12:34.945Z,16.29
2019-05-21T21:15:08.812Z,16.36
2019-05-21T21:17:40.164Z,16.32
2019-05-21T21:20:12.127Z,16.29
2019-05-21T21:22:43.397Z,16.23
2019-05-21T21:25:16.795Z,16.20
2019-05-21T21:27:47.974Z,16.21
2019-05-21T21:30:19.167Z,16.15
2019-05-21T21:32:51.983Z,16.10
2019-05-21T21:35:23.814Z,16.16
2019-05-21T21:37:55.554Z,16.15
2019-05-21T21:40:27.101Z,16.11
2019-05-21T21:42:58.595Z,16.10
2019-05-21T21:45:29.927Z,16.14
2019-05-21T21:48:01.692Z,16.14
2019-05-21T21:50:36.107Z,16.18
2019-05-21T21:53:07.825Z,16.08
2019-05-21T21:55:39.198Z,16.11
2019-05-21T21:58:10.784Z,16.12
2019-05-21T22:01:04.001Z,16.10
2019-05-21T22:03:38.214Z,16.15
2019-05-21T22:06:12.119Z,16.11
2019-05-21T22:08:43.486Z,16.11
2019-05-21T22:11:14.772Z,16.12
2019-05-21T22:13:45.891Z,16.01
2019-05-21T22:16:17.265Z,15.97
2019-05-21T22:18:48.969Z,16.04
2019-05-21T22:21:20.491Z,16.05
2019-05-21T22:23:51.857Z,16.06
2019-05-21T22:26:23.133Z,16.10
2019-05-21T22:28:54.389Z,16.01
2019-05-21T22:31:25.499Z,15.97
2019-05-21T22:33:56.843Z,15.91
2019-05-21T22:36:28.773Z,15.84
2019-05-21T22:38:59.928Z,15.86
2019-05-21T22:41:30.940Z,15.94
2019-05-21T22:44:02.502Z,15.85
2019-05-21T22:46:33.567Z,15.92
2019-05-21T22:49:04.862Z,15.92
2019-05-21T22:51:35.894Z,15.96
2019-05-21T22:54:07.317Z,15.81
2019-05-21T22:56:38.631Z,15.68
2019-05-21T22:59:10.383Z,15.71
2019-05-21T23:01:42.879Z,15.70
2019-05-21T23:04:14.454Z,15.67
2019-05-21T23:06:45.665Z,15.64
2019-05-21T23:09:17.150Z,15.65
2019-05-21T23:11:48.706Z,15.66
2019-05-21T23:14:19.952Z,15.72
2019-05-21T23:16:51.251Z,15.74
2019-05-21T23:19:24.393Z,15.81
2019-05-21T23:21:59.236Z,15.76
2019-05-21T23:24:30.566Z,15.78
2019-05-21T23:27:02.571Z,15.81
2019-05-21T23:29:34.782Z,15.73
2019-05-21T23:32:07.123Z,15.70
2019-05-21T23:34:39.905Z,15.65
2019-05-21T23:37:16.697Z,15.55
2019-05-21T23:39:49.962Z,15.51
2019-05-21T23:42:29.641Z,15.50
2019-05-21T23:44:54.912Z,15.50
2019-05-21T23:47:27.136Z,15.52
2019-05-21T23:49:58.760Z,15.53
2019-05-21T23:52:31.454Z,15.56
2019-05-21T23:55:02.904Z,15.57
2019-05-21T23:57:34.281Z,15.63
